Time;durP1;ratioP1;P1;durP2;ratioP2;P2;SDS_P1;SDS_P2;PMS_P1;PMS_P2;Temp;Humidity;BMP_temperature;BMP_pressure;BME280_temperature;BME280_humidity;BME280_pressure;Samples;Min_cycle;Max_cycle;Signal;HPM_P1;HPM_P2
2023/12/18 00:01:51;;;;;;;3.63;1.53;;;2.10;99.90;;;;;;5057181;28;20446;-79
2023/12/18 00:04:19;;;;;;;2.87;1.70;;;2.00;99.90;;;;;;5057778;28;20433;-78
2023/12/18 00:06:47;;;;;;;4.20;2.67;;;2.00;99.90;;;;;;5057160;28;20481;-80
2023/12/18 00:09:14;;;;;;;3.10;1.77;;;1.90;99.90;;;;;;5057951;28;20460;-80
2023/12/18 00:11:41;;;;;;;1.70;0.90;;;1.90;99.90;;;;;;5059034;28;20450;-79
2023/12/18 00:14:07;;;;;;;1.30;1.23;;;1.90;99.90;;;;;;5057688;28;20454;-79
2023/12/18 00:16:34;;;;;;;1.90;1.30;;;1.90;99.90;;;;;;5056830;28;20488;-79
2023/12/18 00:19:01;;;;;;;1.67;1.23;;;2.00;99.90;;;;;;5057069;28;20487;-79
2023/12/18 00:21:28;;;;;;;6.50;1.83;;;2.00;99.90;;;;;;5057413;28;20437;-80
2023/12/18 00:23:56;;;;;;;1.40;1.30;;;2.00;99.90;;;;;;5057199;28;20476;-80
2023/12/18 00:26:23;;;;;;;2.57;1.30;;;2.00;99.90;;;;;;5056127;28;20452;-79
2023/12/18 00:28:49;;;;;;;1.80;1.00;;;2.00;99.90;;;;;;5056884;28;20441;-79
2023/12/18 00:31:16;;;;;;;0.90;0.90;;;2.00;99.90;;;;;;5061394;28;20805;-80
2023/12/18 00:33:43;;;;;;;1.63;1.13;;;2.00;99.90;;;;;;5061096;28;20434;-79
2023/12/18 00:36:10;;;;;;;4.93;1.50;;;2.00;99.90;;;;;;5060847;28;20449;-79
2023/12/18 00:38:37;;;;;;;3.30;1.23;;;2.00;99.90;;;;;;5060750;28;20486;-79
2023/12/18 00:41:05;;;;;;;2.30;1.33;;;2.00;99.90;;;;;;5060691;28;20445;-79
2023/12/18 00:43:32;;;;;;;1.90;1.10;;;2.00;99.90;;;;;;5060363;28;20446;-79
2023/12/18 00:46:00;;;;;;;0.97;0.93;;;2.00;99.90;;;;;;5059258;28;20442;-80
2023/12/18 00:48:27;;;;;;;2.67;1.90;;;2.00;99.90;;;;;;5059793;28;20472;-79
2023/12/18 00:50:54;;;;;;;4.10;1.47;;;2.00;99.90;;;;;;5059726;28;20450;-79
2023/12/18 00:53:20;;;;;;;4.10;2.10;;;2.00;99.90;;;;;;5059683;28;20821;-79
2023/12/18 00:55:48;;;;;;;4.30;2.43;;;2.00;99.90;;;;;;5060826;28;20441;-79
2023/12/18 00:58:16;;;;;;;2.97;1.37;;;2.10;99.90;;;;;;5060111;28;20489;-79
2023/12/18 01:00:42;;;;;;;1.37;1.27;;;2.10;99.90;;;;;;5060960;28;20448;-79
2023/12/18 01:03:09;;;;;;;1.73;0.87;;;2.00;99.90;;;;;;5060879;28;20453;-80
2023/12/18 01:05:36;;;;;;;0.80;0.80;;;2.00;99.90;;;;;;5060965;28;20465;-80
2023/12/18 01:08:03;;;;;;;0.63;0.63;;;1.90;99.90;;;;;;5059982;28;20978;-80
2023/12/18 01:10:29;;;;;;;3.40;0.60;;;1.90;99.90;;;;;;5059339;28;20450;-79
2023/12/18 01:12:56;;;;;;;0.70;0.70;;;1.90;99.90;;;;;;5059360;28;20958;-79
2023/12/18 01:15:24;;;;;;;0.80;0.73;;;2.00;99.90;;;;;;5058815;28;20531;-80
2023/12/18 01:17:51;;;;;;;1.03;0.70;;;2.10;99.90;;;;;;5058507;28;20486;-79
2023/12/18 01:20:18;;;;;;;0.60;0.60;;;2.20;99.90;;;;;;5058555;28;20445;-79
2023/12/18 01:22:44;;;;;;;0.30;0.30;;;2.30;99.90;;;;;;5058075;28;20492;-79
2023/12/18 01:25:11;;;;;;;0.70;0.70;;;2.30;99.90;;;;;;5060144;28;20453;-79
2023/12/18 01:27:38;;;;;;;0.80;0.80;;;2.40;99.90;;;;;;5073944;28;20520;-79
2023/12/18 01:30:08;;;;;;;1.03;0.67;;;2.40;99.90;;;;;;5057870;28;20454;-80
2023/12/18 01:32:36;;;;;;;1.67;1.03;;;2.40;99.90;;;;;;5057948;28;20500;-80
2023/12/18 01:35:02;;;;;;;2.80;1.00;;;2.40;99.90;;;;;;5058129;28;20434;-80
2023/12/18 01:37:29;;;;;;;1.77;1.13;;;2.40;99.90;;;;;;5058538;28;20878;-80
2023/12/18 01:39:57;;;;;;;4.03;1.93;;;2.40;99.90;;;;;;5058896;28;20448;-80
2023/12/18 01:42:24;;;;;;;4.20;1.23;;;2.40;99.90;;;;;;5057307;28;20503;-80
2023/12/18 01:44:51;;;;;;;1.90;1.33;;;2.30;99.90;;;;;;5058663;28;20446;-80
2023/12/18 01:47:18;;;;;;;2.30;1.33;;;2.20;99.90;;;;;;5059769;28;20470;-80
2023/12/18 01:49:46;;;;;;;2.10;1.90;;;2.10;99.90;;;;;;5059236;28;20457;-80
2023/12/18 01:52:14;;;;;;;0.63;0.63;;;2.10;99.90;;;;;;5060005;28;20548;-80
2023/12/18 01:54:40;;;;;;;3.30;1.60;;;2.00;99.90;;;;;;5060331;28;20454;-79
2023/12/18 01:57:08;;;;;;;0.80;0.80;;;2.00;99.90;;;;;;5060454;28;20466;-79
2023/12/18 01:59:35;;;;;;;2.13;1.70;;;1.90;99.90;;;;;;5062228;28;20490;-79
2023/12/18 02:02:02;;;;;;;1.40;1.27;;;1.90;99.90;;;;;;5060588;28;20457;-79
2023/12/18 02:04:30;;;;;;;12.23;1.60;;;1.90;99.90;;;;;;5060566;28;20430;-79
2023/12/18 02:07:01;;;;;;;1.10;1.00;;;1.80;99.90;;;;;;5059994;28;20488;-80
2023/12/18 02:09:28;;;;;;;3.07;1.53;;;1.80;99.90;;;;;;5061454;28;20429;-80
2023/12/18 02:11:55;;;;;;;1.30;1.20;;;1.80;99.90;;;;;;5061232;28;20450;-79
2023/12/18 02:14:21;;;;;;;1.40;0.53;;;1.80;99.90;;;;;;5061182;28;20442;-80
2023/12/18 02:16:48;;;;;;;1.53;1.10;;;1.80;99.90;;;;;;5061712;28;20465;-80
2023/12/18 02:19:25;;;;;;;1.07;1.07;;;1.90;99.90;;;;;;5061026;28;20489;-79
2023/12/18 02:21:52;;;;;;;1.47;1.37;;;1.90;99.90;;;;;;5061211;28;20517;-80
2023/12/18 02:24:20;;;;;;;2.50;0.80;;;1.90;99.90;;;;;;5060879;28;20462;-79
2023/12/18 02:26:48;;;;;;;1.10;0.93;;;1.90;99.90;;;;;;5060447;28;20474;-80
2023/12/18 02:29:15;;;;;;;4.13;0.97;;;1.80;99.90;;;;;;5060323;28;20484;-79
2023/12/18 02:31:44;;;;;;;2.30;2.03;;;1.80;99.90;;;;;;5061165;28;20438;-80
2023/12/18 02:34:11;;;;;;;3.03;1.13;;;1.80;99.90;;;;;;5061595;28;20450;-79
2023/12/18 02:36:37;;;;;;;2.10;1.90;;;1.70;99.90;;;;;;5060793;28;20472;-80
2023/12/18 02:39:04;;;;;;;3.10;1.73;;;1.70;99.90;;;;;;5061288;28;20995;-79
2023/12/18 02:41:32;;;;;;;1.40;1.30;;;1.70;99.90;;;;;;5061973;28;20438;-79
2023/12/18 02:43:59;;;;;;;5.00;1.73;;;1.70;99.90;;;;;;5062651;28;20453;-79
2023/12/18 02:46:25;;;;;;;2.43;1.73;;;1.60;99.90;;;;;;5062951;28;20453;-79
2023/12/18 02:48:52;;;;;;;2.00;0.90;;;1.60;99.90;;;;;;5062457;28;20481;-80
2023/12/18 02:51:19;;;;;;;0.77;0.77;;;1.60;99.90;;;;;;5060958;28;20815;-79
2023/12/18 02:53:46;;;;;;;2.10;2.00;;;1.60;99.90;;;;;;5060262;28;20445;-79
2023/12/18 02:56:13;;;;;;;2.23;1.47;;;1.60;99.90;;;;;;5062938;28;20456;-81
2023/12/18 02:58:41;;;;;;;3.67;0.97;;;1.60;99.90;;;;;;5063177;28;20481;-79
2023/12/18 03:01:08;;;;;;;1.27;0.80;;;1.60;99.90;;;;;;5062326;28;20446;-79
2023/12/18 03:03:35;;;;;;;2.13;0.87;;;1.70;99.90;;;;;;5062739;28;20457;-79
2023/12/18 03:06:02;;;;;;;0.40;0.40;;;1.70;99.90;;;;;;5061037;28;20830;-79
2023/12/18 03:08:28;;;;;;;2.30;0.90;;;1.70;99.90;;;;;;5058732;28;20466;-80
2023/12/18 03:10:55;;;;;;;0.50;0.40;;;1.80;99.90;;;;;;5059638;28;20445;-79
2023/12/18 03:13:22;;;;;;;0.87;0.63;;;1.90;99.90;;;;;;5058991;28;20446;-79
2023/12/18 03:15:50;;;;;;;0.60;0.60;;;2.00;99.90;;;;;;5058144;28;20438;-80
2023/12/18 03:18:17;;;;;;;1.60;1.00;;;2.10;99.90;;;;;;5056613;28;20489;-79
2023/12/18 03:20:44;;;;;;;0.40;0.30;;;2.10;99.90;;;;;;5056317;28;20453;-80
2023/12/18 03:23:10;;;;;;;0.87;0.87;;;2.20;99.90;;;;;;5056313;28;20953;-80
2023/12/18 03:25:37;;;;;;;1.03;0.97;;;2.30;99.90;;;;;;5055844;28;20438;-79
2023/12/18 03:28:04;;;;;;;0.83;0.70;;;2.30;99.90;;;;;;5056104;28;20458;-80
2023/12/18 03:30:31;;;;;;;1.23;0.70;;;2.40;99.90;;;;;;5055783;28;20938;-79
2023/12/18 03:32:59;;;;;;;1.67;1.57;;;2.40;99.90;;;;;;5055979;28;20450;-79
2023/12/18 03:35:27;;;;;;;2.20;0.70;;;2.40;99.90;;;;;;5056072;28;20795;-80
2023/12/18 03:37:53;;;;;;;0.60;0.60;;;2.30;99.90;;;;;;5055753;28;20469;-79
2023/12/18 03:40:20;;;;;;;0.60;0.60;;;2.20;99.90;;;;;;5056202;28;20450;-79
2023/12/18 03:42:47;;;;;;;0.50;0.50;;;2.20;99.90;;;;;;5057119;28;20438;-79
2023/12/18 03:45:13;;;;;;;1.93;0.80;;;2.10;99.90;;;;;;5071554;28;20446;-78
2023/12/18 03:47:40;;;;;;;0.50;0.50;;;2.10;99.90;;;;;;5054745;28;20472;-79
2023/12/18 03:50:10;;;;;;;0.73;0.73;;;2.10;99.90;;;;;;5055126;28;20446;-79
2023/12/18 03:52:36;;;;;;;0.80;0.70;;;2.10;99.90;;;;;;5055653;28;20438;-80
2023/12/18 03:55:04;;;;;;;1.50;1.10;;;2.20;99.90;;;;;;5055829;28;20458;-79
2023/12/18 03:57:30;;;;;;;0.77;0.77;;;2.30;99.90;;;;;;5055432;28;20457;-80
2023/12/18 03:59:58;;;;;;;1.60;0.73;;;2.30;99.90;;;;;;5055449;28;20485;-80
2023/12/18 04:02:25;;;;;;;0.87;0.70;;;2.30;99.90;;;;;;5055775;28;20894;-79
2023/12/18 04:04:52;;;;;;;1.17;0.80;;;2.20;99.90;;;;;;5056967;28;20452;-80
2023/12/18 04:07:20;;;;;;;2.37;0.80;;;2.20;99.90;;;;;;5059252;28;20482;-80
2023/12/18 04:09:47;;;;;;;5.80;1.53;;;2.20;99.90;;;;;;5059849;28;20499;-79
2023/12/18 04:12:14;;;;;;;1.47;0.90;;;2.20;99.90;;;;;;5059646;28;20449;-80
2023/12/18 04:14:43;;;;;;;1.13;1.07;;;2.20;99.90;;;;;;5060546;28;20438;-80
2023/12/18 04:17:10;;;;;;;4.57;1.67;;;2.20;99.90;;;;;;5060293;28;20465;-79
2023/12/18 04:19:37;;;;;;;1.70;0.90;;;2.10;99.90;;;;;;5061713;28;20478;-79
2023/12/18 04:22:04;;;;;;;2.90;1.57;;;2.10;99.90;;;;;;5061065;28;20445;-79
2023/12/18 04:24:32;;;;;;;1.53;1.13;;;2.00;99.90;;;;;;5061436;28;20442;-79
2023/12/18 04:26:59;;;;;;;0.97;0.87;;;2.00;99.90;;;;;;5061862;28;20495;-79
2023/12/18 04:29:26;;;;;;;0.80;0.60;;;1.90;99.90;;;;;;5062041;28;20434;-80
2023/12/18 04:31:52;;;;;;;0.83;0.83;;;1.90;99.90;;;;;;5062332;28;20464;-79
2023/12/18 04:34:19;;;;;;;0.73;0.73;;;1.80;99.90;;;;;;5061694;28;20962;-79
2023/12/18 04:36:46;;;;;;;1.20;1.20;;;1.80;99.90;;;;;;5061691;28;20462;-79
2023/12/18 04:39:14;;;;;;;0.83;0.80;;;1.80;99.90;;;;;;5062561;28;20489;-79
2023/12/18 04:41:43;;;;;;;0.97;0.93;;;1.70;99.90;;;;;;5063782;28;20472;-79
2023/12/18 04:44:10;;;;;;;1.00;0.90;;;1.70;99.90;;;;;;5064830;28;20438;-79
2023/12/18 04:46:37;;;;;;;2.50;1.30;;;1.70;99.90;;;;;;5062636;28;20971;-80
2023/12/18 04:49:04;;;;;;;4.40;1.97;;;1.60;99.90;;;;;;5063386;28;20453;-79
2023/12/18 04:51:31;;;;;;;2.10;1.07;;;1.60;99.90;;;;;;5064505;28;20449;-79
2023/12/18 04:53:58;;;;;;;4.73;1.33;;;1.60;99.90;;;;;;5064014;28;20493;-79
2023/12/18 04:56:25;;;;;;;1.33;1.27;;;1.50;99.90;;;;;;5067600;28;20811;-80
2023/12/18 04:58:53;;;;;;;2.03;0.97;;;1.50;99.90;;;;;;5070843;28;20477;-79
2023/12/18 05:01:19;;;;;;;2.30;1.00;;;1.50;99.90;;;;;;5063972;28;20824;-79
2023/12/18 05:03:46;;;;;;;1.00;0.57;;;1.50;99.90;;;;;;5065562;28;20450;-79
2023/12/18 05:06:20;;;;;;;2.63;0.80;;;1.50;99.90;;;;;;5065487;28;20454;-81
2023/12/18 05:08:47;;;;;;;0.60;0.40;;;1.40;99.90;;;;;;5066699;28;20796;-79
2023/12/18 05:11:13;;;;;;;2.00;1.40;;;1.40;99.90;;;;;;5067786;28;20445;-80
2023/12/18 05:13:40;;;;;;;2.33;0.70;;;1.40;99.90;;;;;;5067759;28;20437;-79
2023/12/18 05:16:08;;;;;;;1.17;0.80;;;1.40;99.90;;;;;;5067162;28;20450;-80
2023/12/18 05:18:35;;;;;;;1.03;0.60;;;1.30;99.90;;;;;;5067613;28;20437;-79
2023/12/18 05:21:02;;;;;;;0.53;0.53;;;1.40;99.90;;;;;;5068430;28;20449;-79
2023/12/18 05:23:28;;;;;;;0.60;0.60;;;1.30;99.90;;;;;;5067546;28;20446;-79
2023/12/18 05:25:55;;;;;;;1.30;1.20;;;1.30;99.90;;;;;;5067775;28;20801;-79
2023/12/18 05:28:22;;;;;;;0.70;0.70;;;1.30;99.90;;;;;;5066495;28;20472;-79
2023/12/18 05:30:49;;;;;;;1.77;0.80;;;1.30;99.90;;;;;;5066987;28;20456;-79
2023/12/18 05:33:17;;;;;;;1.10;1.10;;;1.20;99.90;;;;;;5067403;28;20441;-78
2023/12/18 05:35:44;;;;;;;0.70;0.70;;;1.20;99.90;;;;;;5066976;28;20460;-79
2023/12/18 05:38:11;;;;;;;2.57;1.10;;;1.20;99.90;;;;;;5067666;28;20457;-79
2023/12/18 05:40:38;;;;;;;2.20;1.50;;;1.20;99.90;;;;;;5066686;28;20901;-79
2023/12/18 05:43:05;;;;;;;2.20;1.60;;;1.20;99.90;;;;;;5066145;28;20463;-79
2023/12/18 05:45:32;;;;;;;1.07;0.70;;;1.30;99.90;;;;;;5067281;28;20441;-79
2023/12/18 05:47:59;;;;;;;0.83;0.83;;;1.30;99.90;;;;;;5067297;28;20469;-78
2023/12/18 05:50:28;;;;;;;1.37;1.27;;;1.30;99.90;;;;;;5067975;28;20441;-80
2023/12/18 05:52:54;;;;;;;1.23;1.10;;;1.30;99.90;;;;;;5068502;28;20445;-79
2023/12/18 05:55:23;;;;;;;4.10;1.13;;;1.30;99.90;;;;;;5066588;28;20450;-79
2023/12/18 05:57:49;;;;;;;1.17;0.87;;;1.30;99.90;;;;;;5067527;28;20461;-79
2023/12/18 06:00:18;;;;;;;1.37;0.93;;;1.20;99.90;;;;;;5066245;28;20848;-78
2023/12/18 06:02:45;;;;;;;0.60;0.60;;;1.30;99.90;;;;;;5070087;28;20452;-78
2023/12/18 06:05:12;;;;;;;0.40;0.40;;;1.20;99.90;;;;;;5065471;28;20511;-79
2023/12/18 06:07:40;;;;;;;0.70;0.70;;;1.30;99.90;;;;;;5061692;28;20484;-79
2023/12/18 06:10:08;;;;;;;0.47;0.47;;;1.40;99.90;;;;;;5061867;28;20442;-79
2023/12/18 06:12:35;;;;;;;1.27;0.93;;;1.50;99.90;;;;;;5062391;28;20442;-79
2023/12/18 06:15:02;;;;;;;1.60;1.10;;;1.50;99.90;;;;;;5061362;28;20453;-79
2023/12/18 06:17:29;;;;;;;0.80;0.80;;;1.60;99.90;;;;;;5062284;28;20868;-79
2023/12/18 06:19:56;;;;;;;0.80;0.80;;;1.60;99.90;;;;;;5061846;28;20469;-79
2023/12/18 06:22:23;;;;;;;1.17;1.10;;;1.60;99.90;;;;;;5061623;28;20449;-79
2023/12/18 06:24:51;;;;;;;3.50;1.47;;;1.60;99.90;;;;;;5062006;28;20453;-79
2023/12/18 06:27:18;;;;;;;1.33;1.00;;;1.60;99.90;;;;;;5062948;28;20462;-79
2023/12/18 06:29:44;;;;;;;0.80;0.80;;;1.50;99.90;;;;;;5064349;28;20939;-79
2023/12/18 06:32:12;;;;;;;0.93;0.80;;;1.50;99.90;;;;;;5062559;28;20449;-79
2023/12/18 06:34:39;;;;;;;6.60;1.43;;;1.50;99.90;;;;;;5063208;28;20457;-79
2023/12/18 06:37:06;;;;;;;0.90;0.90;;;1.40;99.90;;;;;;5064145;28;20458;-79
2023/12/18 06:39:33;;;;;;;0.73;0.60;;;1.40;99.90;;;;;;5064733;28;20852;-79
2023/12/18 06:42:01;;;;;;;2.40;1.30;;;1.40;99.90;;;;;;5064057;28;20438;-79
2023/12/18 06:44:28;;;;;;;2.07;0.97;;;1.40;99.90;;;;;;5065761;28;20459;-79
2023/12/18 06:46:55;;;;;;;9.40;2.60;;;1.40;99.90;;;;;;5065102;28;20476;-79
2023/12/18 06:49:22;;;;;;;2.50;1.50;;;1.30;99.90;;;;;;5065165;28;20457;-79
2023/12/18 06:51:49;;;;;;;1.13;1.10;;;1.30;99.90;;;;;;5064352;28;20446;-79
2023/12/18 06:54:16;;;;;;;2.47;0.83;;;1.30;99.90;;;;;;5065400;28;20461;-79
2023/12/18 06:56:43;;;;;;;1.03;0.93;;;1.30;99.90;;;;;;5064196;28;20460;-80
2023/12/18 06:59:11;;;;;;;0.63;0.63;;;1.30;99.90;;;;;;5064441;28;20473;-79
2023/12/18 07:01:38;;;;;;;0.40;0.40;;;1.30;99.90;;;;;;5064497;28;20465;-79
2023/12/18 07:04:05;;;;;;;2.70;1.20;;;1.30;99.90;;;;;;5064002;28;20454;-79
2023/12/18 07:06:32;;;;;;;5.40;1.10;;;1.30;99.90;;;;;;5063867;28;20532;-80
2023/12/18 07:08:59;;;;;;;2.00;1.20;;;1.30;99.90;;;;;;5065271;28;20452;-79
2023/12/18 07:11:26;;;;;;;0.90;0.90;;;1.30;99.90;;;;;;5065859;28;20446;-79
2023/12/18 07:13:53;;;;;;;2.33;0.70;;;1.30;99.90;;;;;;5066242;28;20454;-79
2023/12/18 07:16:21;;;;;;;0.60;0.60;;;1.30;99.90;;;;;;5065560;28;20507;-80
2023/12/18 07:18:48;;;;;;;0.73;0.73;;;1.30;99.90;;;;;;5064305;28;20453;-79
2023/12/18 07:21:15;;;;;;;1.47;1.37;;;1.30;99.90;;;;;;5064551;28;20486;-79
2023/12/18 07:23:43;;;;;;;1.33;1.30;;;1.40;99.90;;;;;;5064512;28;20448;-79
2023/12/18 07:26:12;;;;;;;1.77;1.00;;;1.30;99.90;;;;;;5065866;28;20454;-81
2023/12/18 07:28:38;;;;;;;2.00;1.13;;;1.30;99.90;;;;;;5063483;28;20450;-79
2023/12/18 07:31:05;;;;;;;0.80;0.80;;;1.30;99.90;;;;;;5063073;28;20437;-79
2023/12/18 07:33:33;;;;;;;0.80;0.73;;;1.40;99.90;;;;;;5062159;28;20433;-79
2023/12/18 07:36:00;;;;;;;0.87;0.50;;;1.40;99.90;;;;;;5063038;28;20446;-79
2023/12/18 07:38:27;;;;;;;2.20;1.00;;;1.40;99.90;;;;;;5064803;28;20471;-79
2023/12/18 07:40:53;;;;;;;2.50;1.00;;;1.40;99.90;;;;;;5066814;28;20485;-79
2023/12/18 07:43:20;;;;;;;1.13;1.13;;;1.40;99.90;;;;;;5065603;28;20441;-79
2023/12/18 07:45:47;;;;;;;4.50;1.40;;;1.40;99.90;;;;;;5065301;28;20789;-79
2023/12/18 07:48:13;;;;;;;1.03;0.93;;;1.40;99.90;;;;;;5065124;28;20467;-79
2023/12/18 07:50:42;;;;;;;0.90;0.90;;;1.40;99.90;;;;;;5068000;28;20435;-79
2023/12/18 07:53:08;;;;;;;3.33;1.13;;;1.40;99.90;;;;;;5061644;28;20943;-79
2023/12/18 07:55:35;;;;;;;2.83;1.30;;;1.50;99.90;;;;;;5063198;28;20452;-79
2023/12/18 07:58:02;;;;;;;1.40;1.30;;;1.50;99.90;;;;;;5064358;28;20461;-79
2023/12/18 08:00:28;;;;;;;3.43;1.40;;;1.50;99.90;;;;;;5063731;28;20488;-79
2023/12/18 08:02:55;;;;;;;6.40;1.87;;;1.50;99.90;;;;;;5064029;28;20425;-79
2023/12/18 08:05:23;;;;;;;3.80;1.00;;;1.50;99.90;;;;;;5063375;28;20453;-79
2023/12/18 08:07:51;;;;;;;2.63;0.83;;;1.50;99.90;;;;;;5061855;28;20485;-79
2023/12/18 08:10:18;;;;;;;1.57;1.47;;;1.50;99.90;;;;;;5061894;28;20452;-78
2023/12/18 08:12:45;;;;;;;1.80;1.03;;;1.50;99.90;;;;;;5060641;28;20537;-79
2023/12/18 08:15:12;;;;;;;1.40;1.20;;;1.60;99.90;;;;;;5062330;28;20446;-79
2023/12/18 08:17:39;;;;;;;0.93;0.90;;;1.60;99.90;;;;;;5061533;28;20484;-79
2023/12/18 08:20:07;;;;;;;1.17;1.07;;;1.60;99.90;;;;;;5065560;28;20485;-79
2023/12/18 08:22:34;;;;;;;4.00;2.40;;;1.60;99.90;;;;;;5071322;28;20528;-78
2023/12/18 08:25:03;;;;;;;2.10;1.33;;;1.70;99.90;;;;;;5061219;28;20521;-79
2023/12/18 08:27:32;;;;;;;2.00;0.90;;;1.80;99.90;;;;;;5060536;28;20511;-79
2023/12/18 08:29:59;;;;;;;1.60;1.43;;;1.80;99.90;;;;;;5060057;28;20503;-79
2023/12/18 08:32:25;;;;;;;0.80;0.80;;;1.80;99.90;;;;;;5058120;28;20444;-79
2023/12/18 08:34:52;;;;;;;1.77;0.93;;;1.80;99.90;;;;;;5059558;28;20448;-78
2023/12/18 08:37:19;;;;;;;1.13;1.03;;;1.90;99.90;;;;;;5058171;28;20492;-78
2023/12/18 08:39:46;;;;;;;1.00;1.00;;;1.90;99.90;;;;;;5057939;28;20485;-78
2023/12/18 08:42:14;;;;;;;2.67;2.47;;;2.00;99.90;;;;;;5058904;28;20456;-78
2023/12/18 08:44:41;;;;;;;0.97;0.87;;;2.00;99.90;;;;;;5058947;28;20445;-79
2023/12/18 08:47:08;;;;;;;0.93;0.93;;;2.10;99.90;;;;;;5058065;28;20465;-79
2023/12/18 08:49:34;;;;;;;3.50;1.47;;;2.10;99.90;;;;;;5058693;28;20476;-79
2023/12/18 08:52:01;;;;;;;8.17;2.90;;;2.10;99.90;;;;;;5059965;28;20533;-79
2023/12/18 08:54:28;;;;;;;3.37;1.90;;;2.20;99.90;;;;;;5059052;28;20456;-78
2023/12/18 08:56:54;;;;;;;2.30;1.70;;;2.20;99.90;;;;;;5059729;28;20480;-79
2023/12/18 08:59:23;;;;;;;1.27;0.90;;;2.20;99.90;;;;;;5058084;28;20442;-78
2023/12/18 09:01:49;;;;;;;1.13;0.90;;;2.30;99.90;;;;;;5057833;28;20492;-79
2023/12/18 09:04:16;;;;;;;1.13;0.80;;;2.40;99.90;;;;;;5058096;28;20450;-79
2023/12/18 09:06:43;;;;;;;3.23;1.33;;;2.50;99.90;;;;;;5057752;28;20481;-80
2023/12/18 09:09:11;;;;;;;1.20;0.77;;;2.60;99.90;;;;;;5058929;28;20789;-80
2023/12/18 09:11:38;;;;;;;0.70;0.70;;;2.70;99.90;;;;;;5057999;28;20461;-80
2023/12/18 09:14:05;;;;;;;2.00;1.90;;;2.90;99.90;;;;;;5057711;28;20454;-80
2023/12/18 09:16:35;;;;;;;1.23;0.50;;;3.00;99.90;;;;;;5058561;28;20470;-79
2023/12/18 09:19:02;;;;;;;1.87;0.80;;;3.10;99.90;;;;;;5058982;28;20843;-80
2023/12/18 09:21:28;;;;;;;1.93;1.10;;;3.20;99.90;;;;;;5058166;28;20840;-80
2023/12/18 09:23:55;;;;;;;1.70;0.80;;;3.30;99.90;;;;;;5058223;28;20505;-80
2023/12/18 09:26:22;;;;;;;1.53;0.90;;;3.40;99.90;;;;;;5057788;28;20449;-79
2023/12/18 09:28:49;;;;;;;0.83;0.80;;;3.40;99.90;;;;;;5057605;28;20446;-80
2023/12/18 09:31:16;;;;;;;1.40;1.23;;;3.50;99.90;;;;;;5058451;28;20445;-80
2023/12/18 09:33:45;;;;;;;4.30;0.97;;;3.60;99.90;;;;;;5057408;28;20460;-80
2023/12/18 09:36:12;;;;;;;0.57;0.57;;;3.70;99.90;;;;;;5058193;28;20442;-79
2023/12/18 09:38:39;;;;;;;0.60;0.60;;;3.70;99.90;;;;;;5057128;28;20450;-81
2023/12/18 09:41:07;;;;;;;1.10;0.80;;;3.80;99.90;;;;;;5057298;28;20481;-80
2023/12/18 09:43:34;;;;;;;0.70;0.63;;;3.90;99.90;;;;;;5057914;28;20474;-81
2023/12/18 09:46:02;;;;;;;5.70;1.13;;;4.40;99.90;;;;;;5057247;28;20453;-81
2023/12/18 09:48:29;;;;;;;1.30;1.20;;;5.40;99.90;;;;;;5057612;28;20877;-80
2023/12/18 09:50:57;;;;;;;1.83;1.57;;;6.90;99.90;;;;;;5057104;28;20533;-82
2023/12/18 09:53:24;;;;;;;2.00;1.47;;;8.60;99.90;;;;;;5055773;28;20449;-83
2023/12/18 09:55:54;;;;;;;1.90;1.10;;;10.50;99.90;;;;;;5055313;28;20431;-81
2023/12/18 09:58:23;;;;;;;1.47;1.00;;;12.20;99.90;;;;;;5055165;28;20458;-81
2023/12/18 10:00:51;;;;;;;1.30;1.20;;;13.60;99.90;;;;;;5054814;28;20568;-81
2023/12/18 10:03:18;;;;;;;0.87;0.50;;;14.40;99.90;;;;;;5054113;28;20441;-81
2023/12/18 10:05:46;;;;;;;1.53;0.93;;;14.90;99.90;;;;;;5055053;28;20465;-80
2023/12/18 10:08:15;;;;;;;0.80;0.70;;;15.10;99.90;;;;;;5054502;28;20486;-80
2023/12/18 10:10:43;;;;;;;1.00;1.00;;;14.70;99.90;;;;;;5055511;28;20429;-80
2023/12/18 10:13:12;;;;;;;1.13;0.87;;;14.30;99.90;;;;;;5056337;28;20449;-78
2023/12/18 10:15:39;;;;;;;1.17;1.10;;;13.70;99.90;;;;;;5055144;28;20453;-80
2023/12/18 10:18:07;;;;;;;0.70;0.60;;;12.90;99.90;;;;;;5055069;28;20470;-79
2023/12/18 10:20:35;;;;;;;2.20;0.80;;;12.30;99.90;;;;;;5055043;28;20489;-80
2023/12/18 10:23:02;;;;;;;2.00;1.03;;;11.70;99.90;;;;;;5054880;28;20441;-80
2023/12/18 10:25:31;;;;;;;0.60;0.60;;;11.30;99.90;;;;;;5054664;28;20452;-81
2023/12/18 10:27:58;;;;;;;1.43;1.10;;;10.90;99.90;;;;;;5054907;28;20539;-80
2023/12/18 10:30:27;;;;;;;0.80;0.80;;;10.60;99.90;;;;;;5054907;28;20449;-80
2023/12/18 10:32:54;;;;;;;2.47;1.20;;;10.40;99.90;;;;;;5055275;28;20445;-80
2023/12/18 10:35:23;;;;;;;0.80;0.80;;;10.30;99.90;;;;;;5054941;28;20446;-80
2023/12/18 10:37:53;;;;;;;1.73;1.03;;;9.90;99.90;;;;;;5060688;28;20458;-79
2023/12/18 10:40:23;;;;;;;0.63;0.50;;;9.50;99.90;;;;;;5057700;28;20470;-80
2023/12/18 10:43:03;;;;;;;1.87;0.40;;;9.20;99.90;;;;;;5054383;28;20450;-81
2023/12/18 10:45:31;;;;;;;0.87;0.60;;;9.00;99.90;;;;;;5053910;28;20426;-81
2023/12/18 10:48:00;;;;;;;0.97;0.60;;;8.80;99.90;;;;;;5054002;28;20469;-80
2023/12/18 10:50:29;;;;;;;0.70;0.70;;;8.70;99.90;;;;;;5053823;28;20495;-81
2023/12/18 10:52:59;;;;;;;0.40;0.40;;;8.60;99.90;;;;;;5054409;28;20537;-81
2023/12/18 10:55:27;;;;;;;1.03;0.93;;;8.50;99.90;;;;;;5053651;28;20453;-81
2023/12/18 10:57:57;;;;;;;0.83;0.83;;;8.50;99.90;;;;;;5053521;28;20465;-81
2023/12/18 11:00:25;;;;;;;2.13;0.70;;;8.50;99.90;;;;;;5053901;28;20426;-81
2023/12/18 11:02:52;;;;;;;0.53;0.53;;;8.40;99.90;;;;;;5053784;28;20524;-81
2023/12/18 11:05:22;;;;;;;0.60;0.60;;;8.40;99.90;;;;;;5053379;28;20448;-81
2023/12/18 11:07:50;;;;;;;1.33;0.60;;;8.30;99.90;;;;;;5053263;28;20477;-81
2023/12/18 11:10:17;;;;;;;1.13;0.70;;;8.30;99.90;;;;;;5053588;28;20445;-81
2023/12/18 11:12:45;;;;;;;0.80;0.80;;;8.30;99.90;;;;;;5053497;28;20446;-80
2023/12/18 11:15:26;;;;;;;1.27;0.80;;;8.20;99.90;;;;;;5053852;28;20820;-80
2023/12/18 11:18:04;;;;;;;0.70;0.70;;;8.20;99.90;;;;;;5053642;28;20469;-81
2023/12/18 11:20:35;;;;;;;2.67;0.80;;;8.20;99.90;;;;;;5053467;28;20548;-80
2023/12/18 11:23:02;;;;;;;0.60;0.57;;;8.10;99.90;;;;;;5053260;28;20435;-80
2023/12/18 11:25:32;;;;;;;0.90;0.73;;;8.20;99.90;;;;;;5053436;28;20446;-81
2023/12/18 11:28:02;;;;;;;1.13;0.80;;;8.20;99.90;;;;;;5053209;28;20474;-81
2023/12/18 11:30:32;;;;;;;1.03;0.60;;;8.20;99.90;;;;;;5053631;28;20449;-81
2023/12/18 11:32:59;;;;;;;0.87;0.87;;;8.20;99.90;;;;;;5053600;28;20602;-81
2023/12/18 11:35:28;;;;;;;1.30;0.77;;;8.20;99.90;;;;;;5053405;28;20454;-81
2023/12/18 11:38:03;;;;;;;1.40;0.80;;;8.20;99.90;;;;;;5053902;28;20527;-82
2023/12/18 11:40:41;;;;;;;0.93;0.80;;;8.20;99.90;;;;;;5053443;28;20425;-81
2023/12/18 11:43:09;;;;;;;1.03;0.93;;;8.20;99.90;;;;;;5053562;28;20449;-80
2023/12/18 11:45:40;;;;;;;3.03;0.97;;;8.20;99.90;;;;;;5053787;28;20446;-81
2023/12/18 11:48:08;;;;;;;1.17;0.80;;;8.20;99.90;;;;;;5053059;28;20965;-81
2023/12/18 11:50:37;;;;;;;1.17;0.70;;;8.20;99.90;;;;;;5053523;28;20455;-81
2023/12/18 11:53:08;;;;;;;0.60;0.60;;;8.10;99.90;;;;;;5053684;28;20796;-81
2023/12/18 11:55:42;;;;;;;0.80;0.70;;;8.10;99.90;;;;;;5054069;28;20422;-81
2023/12/18 11:58:10;;;;;;;0.60;0.53;;;8.10;99.90;;;;;;5053198;28;20479;-81
2023/12/18 12:00:39;;;;;;;1.80;0.90;;;8.00;99.90;;;;;;5053588;28;20908;-82
2023/12/18 12:03:08;;;;;;;0.80;0.70;;;8.00;99.90;;;;;;5053137;28;20931;-82
2023/12/18 12:05:37;;;;;;;1.90;1.00;;;8.00;99.90;;;;;;5053225;28;20437;-82
2023/12/18 12:08:05;;;;;;;0.80;0.80;;;8.00;99.90;;;;;;5053855;28;20469;-82
2023/12/18 12:10:31;;;;;;;5.43;1.47;;;7.90;99.90;;;;;;5053695;28;20442;-81
2023/12/18 12:12:58;;;;;;;1.43;0.70;;;7.90;99.90;;;;;;5053185;28;20450;-81
2023/12/18 12:15:27;;;;;;;0.87;0.80;;;7.90;99.90;;;;;;5053288;28;20445;-81
2023/12/18 12:18:03;;;;;;;2.70;0.77;;;7.80;99.90;;;;;;5053300;28;20503;-81
2023/12/18 12:20:30;;;;;;;1.43;1.00;;;7.80;99.90;;;;;;5052883;28;20430;-81
2023/12/18 12:22:57;;;;;;;1.10;1.10;;;7.80;99.90;;;;;;5052635;28;20492;-82
2023/12/18 12:25:24;;;;;;;1.00;0.90;;;7.70;99.90;;;;;;5054218;28;20456;-81
2023/12/18 12:27:51;;;;;;;0.90;0.90;;;7.70;99.90;;;;;;5056867;28;20834;-82
2023/12/18 12:30:18;;;;;;;1.63;0.80;;;7.60;99.90;;;;;;5056446;28;20938;-81
2023/12/18 12:32:46;;;;;;;1.20;0.90;;;7.60;99.90;;;;;;5056437;28;20449;-81
2023/12/18 12:35:16;;;;;;;0.80;0.63;;;7.60;99.90;;;;;;5056399;28;20943;-82
2023/12/18 12:37:42;;;;;;;0.70;0.67;;;7.50;99.90;;;;;;5056403;28;20545;-82
2023/12/18 12:40:11;;;;;;;2.43;0.67;;;7.50;99.90;;;;;;5056386;28;20441;-82
2023/12/18 12:42:38;;;;;;;1.27;1.00;;;7.60;99.90;;;;;;5056171;28;20488;-81
2023/12/18 12:45:07;;;;;;;0.97;0.73;;;7.60;99.90;;;;;;5056421;28;20860;-82
2023/12/18 12:47:34;;;;;;;1.20;0.90;;;7.60;99.90;;;;;;5056012;28;20473;-80
2023/12/18 12:50:05;;;;;;;0.70;0.70;;;7.60;99.90;;;;;;5062219;28;20545;-82
2023/12/18 12:52:36;;;;;;;1.30;0.73;;;7.50;99.90;;;;;;5067351;28;20495;-84
2023/12/18 12:55:02;;;;;;;1.87;0.60;;;7.50;99.90;;;;;;5056397;28;20427;-81
2023/12/18 12:57:29;;;;;;;0.80;0.77;;;7.50;99.90;;;;;;5056006;28;20465;-81